Portada
METAR-TAF:

METAR-TAF

Aeroports :

Riberalta, Bolívia

latitud: 11-00S, longitud: 066-07W, altitud: 141 m

Observació

L'informe es va fer fa 2 hores i 25 minuts, a les 19:00 UTC
Vent 8 kt del Oest/Sud-Oest
Temperatura 28°C
Humitat 84%
Pressió 1011 hPa
Visibilitat: 7000 m
Núvols disperses a una alçada de 1500 ft
Escasses núvols a una alçada de 2000 ft, Cumulonimbus.
Cel ennuvolat a una alçada de 20000 ft
xàfecs en les proximitats

METAR: SLRI 021900Z 25008KT 7000 VCSH SCT015 FEW020CB BKN200 28/25 Q1011

Hora: 17:25 (21:25 UTC)


TAF: manca

Observacions i pronòstics meteorològics de més de 4000 aeroports (METAR i TAF).

Les estacions disponibles són els punts grocs i vermells al mapa.

Posi el ratolí al punt desitjat per veure el nom de l'estació.

Feu clic per veure les observacions i els pronòstics meteorològics.

Per canviar el mapa: feu clic els botons verds amb una creu de color negre per apropar; al botó verd amb un guió per allunyar la imatge; o en les fletxes verdes per a mapes adjacents.


METAR-TAF: